sensor_id;sensor_type;location;lat;lon;timestamp;temperature;humidity
14521;DHT22;7347;50.844;4.490;2022-10-31T08:09:13;14.00;99.90
14521;DHT22;7347;50.844;4.490;2022-10-31T08:11:40;14.30;99.90
14521;DHT22;7347;50.844;4.490;2022-10-31T08:14:06;14.40;99.90
14521;DHT22;7347;50.844;4.490;2022-10-31T08:16:33;14.30;99.90
14521;DHT22;7347;50.844;4.490;2022-10-31T08:19:00;14.30;99.90
14521;DHT22;7347;50.844;4.490;2022-10-31T08:21:27;14.40;99.90
14521;DHT22;7347;50.844;4.490;2022-10-31T08:23:53;14.40;99.90
14521;DHT22;7347;50.844;4.490;2022-10-31T08:26:21;14.40;99.90
14521;DHT22;7347;50.844;4.490;2022-10-31T08:28:48;14.50;99.90
14521;DHT22;7347;50.844;4.490;2022-10-31T08:31:15;14.50;99.90
14521;DHT22;7347;50.844;4.490;2022-10-31T08:33:42;14.70;99.90
14521;DHT22;7347;50.844;4.490;2022-10-31T08:36:09;15.00;99.90
14521;DHT22;7347;50.844;4.490;2022-10-31T08:38:36;15.00;99.90
14521;DHT22;7347;50.844;4.490;2022-10-31T08:41:02;14.80;99.90
14521;DHT22;7347;50.844;4.490;2022-10-31T08:43:30;14.90;99.90
14521;DHT22;7347;50.844;4.490;2022-10-31T08:45:57;14.80;99.90
14521;DHT22;7347;50.844;4.490;2022-10-31T08:48:24;14.70;99.90
14521;DHT22;7347;50.844;4.490;2022-10-31T08:50:51;14.80;99.90
14521;DHT22;7347;50.844;4.490;2022-10-31T08:53:18;14.70;99.90
14521;DHT22;7347;50.844;4.490;2022-10-31T08:55:46;14.70;99.90
14521;DHT22;7347;50.844;4.490;2022-10-31T08:58:14;14.70;99.90
14521;DHT22;7347;50.844;4.490;2022-10-31T09:00:43;14.90;99.90
14521;DHT22;7347;50.844;4.490;2022-10-31T09:03:12;15.00;99.90
14521;DHT22;7347;50.844;4.490;2022-10-31T09:05:39;14.90;99.90
14521;DHT22;7347;50.844;4.490;2022-10-31T09:08:07;15.00;99.90
14521;DHT22;7347;50.844;4.490;2022-10-31T09:10:35;14.90;99.90
14521;DHT22;7347;50.844;4.490;2022-10-31T09:13:07;15.20;99.90
14521;DHT22;7347;50.844;4.490;2022-10-31T09:15:35;15.40;99.90
14521;DHT22;7347;50.844;4.490;2022-10-31T09:18:05;15.50;99.90
14521;DHT22;7347;50.844;4.490;2022-10-31T09:20:33;15.60;99.90
14521;DHT22;7347;50.844;4.490;2022-10-31T09:23:01;15.80;99.90
14521;DHT22;7347;50.844;4.490;2022-10-31T09:25:29;16.00;99.90
14521;DHT22;7347;50.844;4.490;2022-10-31T09:27:56;16.00;99.90
14521;DHT22;7347;50.844;4.490;2022-10-31T09:30:24;16.10;99.90
14521;DHT22;7347;50.844;4.490;2022-10-31T09:32:55;15.80;99.90
14521;DHT22;7347;50.844;4.490;2022-10-31T09:35:23;15.80;99.90
14521;DHT22;7347;50.844;4.490;2022-10-31T09:37:54;15.60;99.90
14521;DHT22;7347;50.844;4.490;2022-10-31T09:40:21;15.50;99.90
14521;DHT22;7347;50.844;4.490;2022-10-31T09:42:55;15.40;99.90
14521;DHT22;7347;50.844;4.490;2022-10-31T09:45:31;15.60;99.90
14521;DHT22;7347;50.844;4.490;2022-10-31T09:48:12;15.80;99.90
14521;DHT22;7347;50.844;4.490;2022-10-31T09:50:45;15.90;99.90
14521;DHT22;7347;50.844;4.490;2022-10-31T09:53:19;15.90;99.90
14521;DHT22;7347;50.844;4.490;2022-10-31T09:55:49;15.70;99.90
14521;DHT22;7347;50.844;4.490;2022-10-31T09:58:20;15.80;99.90
14521;DHT22;7347;50.844;4.490;2022-10-31T10:00:49;15.70;99.90
14521;DHT22;7347;50.844;4.490;2022-10-31T10:03:26;15.90;99.90
14521;DHT22;7347;50.844;4.490;2022-10-31T10:06:01;15.90;99.90
14521;DHT22;7347;50.844;4.490;2022-10-31T10:08:32;15.90;99.90
14521;DHT22;7347;50.844;4.490;2022-10-31T10:11:06;15.90;99.90
14521;DHT22;7347;50.844;4.490;2022-10-31T10:13:59;15.80;99.90
14521;DHT22;7347;50.844;4.490;2022-10-31T10:16:37;15.80;99.90
14521;DHT22;7347;50.844;4.490;2022-10-31T10:19:24;16.10;99.90
14521;DHT22;7347;50.844;4.490;2022-10-31T10:22:02;16.10;99.90
14521;DHT22;7347;50.844;4.490;2022-10-31T10:24:44;16.20;99.90
14521;DHT22;7347;50.844;4.490;2022-10-31T10:27:23;16.50;99.90
14521;DHT22;7347;50.844;4.490;2022-10-31T10:29:58;16.60;99.90
14521;DHT22;7347;50.844;4.490;2022-10-31T10:32:39;16.60;99.90
14521;DHT22;7347;50.844;4.490;2022-10-31T10:35:14;16.50;99.90
14521;DHT22;7347;50.844;4.490;2022-10-31T10:37:46;16.50;99.90
14521;DHT22;7347;50.844;4.490;2022-10-31T10:40:16;16.50;99.90
14521;DHT22;7347;50.844;4.490;2022-10-31T10:42:45;16.70;99.90
14521;DHT22;7347;50.844;4.490;2022-10-31T10:45:34;16.90;99.90
14521;DHT22;7347;50.844;4.490;2022-10-31T10:48:25;16.90;99.90
14521;DHT22;7347;50.844;4.490;2022-10-31T10:50:53;16.60;99.90
14521;DHT22;7347;50.844;4.490;2022-10-31T10:53:40;16.40;99.90
14521;DHT22;7347;50.844;4.490;2022-10-31T10:56:34;16.50;99.90
14521;DHT22;7347;50.844;4.490;2022-10-31T10:59:02;16.70;99.90
14521;DHT22;7347;50.844;4.490;2022-10-31T11:01:29;16.70;99.90
14521;DHT22;7347;50.844;4.490;2022-10-31T11:03:56;16.80;99.90
14521;DHT22;7347;50.844;4.490;2022-10-31T11:06:23;17.00;99.90
14521;DHT22;7347;50.844;4.490;2022-10-31T11:08:53;17.00;99.90
14521;DHT22;7347;50.844;4.490;2022-10-31T11:11:24;17.10;99.90
14521;DHT22;7347;50.844;4.490;2022-10-31T11:13:57;17.10;99.90
14521;DHT22;7347;50.844;4.490;2022-10-31T11:16:31;17.10;99.90
14521;DHT22;7347;50.844;4.490;2022-10-31T11:19:07;17.00;99.90
14521;DHT22;7347;50.844;4.490;2022-10-31T11:21:35;17.00;99.90
14521;DHT22;7347;50.844;4.490;2022-10-31T11:24:07;17.00;99.90
14521;DHT22;7347;50.844;4.490;2022-10-31T11:26:39;17.00;99.90
14521;DHT22;7347;50.844;4.490;2022-10-31T11:29:14;17.20;99.90
14521;DHT22;7347;50.844;4.490;2022-10-31T11:31:42;17.30;99.90
14521;DHT22;7347;50.844;4.490;2022-10-31T11:34:16;17.30;99.90
14521;DHT22;7347;50.844;4.490;2022-10-31T11:36:44;17.50;99.90
14521;DHT22;7347;50.844;4.490;2022-10-31T11:39:18;17.50;99.90
14521;DHT22;7347;50.844;4.490;2022-10-31T11:41:46;17.60;99.90
14521;DHT22;7347;50.844;4.490;2022-10-31T11:44:17;17.70;99.90
14521;DHT22;7347;50.844;4.490;2022-10-31T11:46:46;17.80;99.90
14521;DHT22;7347;50.844;4.490;2022-10-31T11:49:16;17.80;99.90
14521;DHT22;7347;50.844;4.490;2022-10-31T11:51:48;17.80;99.90
14521;DHT22;7347;50.844;4.490;2022-10-31T11:54:22;17.80;99.90
14521;DHT22;7347;50.844;4.490;2022-10-31T11:56:49;17.90;99.90
14521;DHT22;7347;50.844;4.490;2022-10-31T11:59:24;17.80;99.90
14521;DHT22;7347;50.844;4.490;2022-10-31T12:01:53;17.90;99.90
14521;DHT22;7347;50.844;4.490;2022-10-31T12:04:33;18.10;99.90
14521;DHT22;7347;50.844;4.490;2022-10-31T12:07:01;18.10;99.90
14521;DHT22;7347;50.844;4.490;2022-10-31T12:09:32;18.00;99.90
14521;DHT22;7347;50.844;4.490;2022-10-31T12:15:03;17.90;99.90
14521;DHT22;7347;50.844;4.490;2022-10-31T12:17:39;17.90;99.90
14521;DHT22;7347;50.844;4.490;2022-10-31T12:20:17;18.10;99.90
14521;DHT22;7347;50.844;4.490;2022-10-31T12:22:54;18.10;99.90
14521;DHT22;7347;50.844;4.490;2022-10-31T12:25:34;18.20;99.90
14521;DHT22;7347;50.844;4.490;2022-10-31T12:28:28;18.30;99.90
14521;DHT22;7347;50.844;4.490;2022-10-31T12:31:08;18.30;99.90
14521;DHT22;7347;50.844;4.490;2022-10-31T12:33:48;18.30;99.90
14521;DHT22;7347;50.844;4.490;2022-10-31T12:36:33;18.20;99.90
14521;DHT22;7347;50.844;4.490;2022-10-31T12:39:20;18.10;99.90
14521;DHT22;7347;50.844;4.490;2022-10-31T12:41:58;18.10;99.90
14521;DHT22;7347;50.844;4.490;2022-10-31T12:44:40;18.00;99.90
14521;DHT22;7347;50.844;4.490;2022-10-31T12:47:25;18.00;99.90
14521;DHT22;7347;50.844;4.490;2022-10-31T12:50:02;17.90;99.90
14521;DHT22;7347;50.844;4.490;2022-10-31T12:52:46;17.90;99.90
14521;DHT22;7347;50.844;4.490;2022-10-31T12:55:28;18.00;99.90
14521;DHT22;7347;50.844;4.490;2022-10-31T12:58:01;18.00;99.90
14521;DHT22;7347;50.844;4.490;2022-10-31T13:00:31;17.90;99.90
14521;DHT22;7347;50.844;4.490;2022-10-31T13:03:09;18.10;99.90
14521;DHT22;7347;50.844;4.490;2022-10-31T13:05:43;18.20;99.90
14521;DHT22;7347;50.844;4.490;2022-10-31T13:08:13;18.40;99.90
14521;DHT22;7347;50.844;4.490;2022-10-31T13:10:44;18.40;99.90
14521;DHT22;7347;50.844;4.490;2022-10-31T13:13:17;18.70;99.90
14521;DHT22;7347;50.844;4.490;2022-10-31T13:15:48;18.90;99.90
14521;DHT22;7347;50.844;4.490;2022-10-31T13:18:25;19.00;99.90
14521;DHT22;7347;50.844;4.490;2022-10-31T13:20:53;19.10;99.90
14521;DHT22;7347;50.844;4.490;2022-10-31T13:23:27;19.10;99.90
14521;DHT22;7347;50.844;4.490;2022-10-31T13:25:56;19.00;99.90
14521;DHT22;7347;50.844;4.490;2022-10-31T13:28:30;19.00;99.90
14521;DHT22;7347;50.844;4.490;2022-10-31T13:30:58;18.90;99.90
14521;DHT22;7347;50.844;4.490;2022-10-31T13:33:27;18.90;99.90
14521;DHT22;7347;50.844;4.490;2022-10-31T13:36:05;18.80;99.90
14521;DHT22;7347;50.844;4.490;2022-10-31T13:38:36;18.80;99.90
14521;DHT22;7347;50.844;4.490;2022-10-31T13:41:13;18.70;99.90
14521;DHT22;7347;50.844;4.490;2022-10-31T13:43:58;18.80;99.90
14521;DHT22;7347;50.844;4.490;2022-10-31T13:46:35;18.90;99.90
14521;DHT22;7347;50.844;4.490;2022-10-31T13:49:03;18.90;99.90
14521;DHT22;7347;50.844;4.490;2022-10-31T13:51:32;19.00;99.90
14521;DHT22;7347;50.844;4.490;2022-10-31T13:54:06;18.90;99.90
14521;DHT22;7347;50.844;4.490;2022-10-31T13:56:34;18.90;99.90
14521;DHT22;7347;50.844;4.490;2022-10-31T13:59:18;18.90;99.90
14521;DHT22;7347;50.844;4.490;2022-10-31T14:01:54;18.90;99.90
14521;DHT22;7347;50.844;4.490;2022-10-31T14:04:23;18.80;99.90
14521;DHT22;7347;50.844;4.490;2022-10-31T14:06:58;18.80;99.90
14521;DHT22;7347;50.844;4.490;2022-10-31T14:09:29;18.70;99.90
14521;DHT22;7347;50.844;4.490;2022-10-31T14:11:58;18.70;99.90
14521;DHT22;7347;50.844;4.490;2022-10-31T14:14:42;18.70;99.90
14521;DHT22;7347;50.844;4.490;2022-10-31T14:17:18;18.70;99.90
14521;DHT22;7347;50.844;4.490;2022-10-31T14:19:58;18.70;99.90
14521;DHT22;7347;50.844;4.490;2022-10-31T14:22:29;18.70;99.90
14521;DHT22;7347;50.844;4.490;2022-10-31T14:24:56;18.60;99.90
14521;DHT22;7347;50.844;4.490;2022-10-31T14:27:35;18.70;99.90
14521;DHT22;7347;50.844;4.490;2022-10-31T14:30:19;18.60;99.90
14521;DHT22;7347;50.844;4.490;2022-10-31T14:32:51;18.60;99.90
14521;DHT22;7347;50.844;4.490;2022-10-31T14:35:20;18.60;99.90
14521;DHT22;7347;50.844;4.490;2022-10-31T14:40:51;18.50;99.90
14521;DHT22;7347;50.844;4.490;2022-10-31T14:43:40;18.40;99.90
14521;DHT22;7347;50.844;4.490;2022-10-31T14:46:15;18.40;99.90
14521;DHT22;7347;50.844;4.490;2022-10-31T14:49:04;18.40;99.90
14521;DHT22;7347;50.844;4.490;2022-10-31T14:51:38;18.30;99.90
14521;DHT22;7347;50.844;4.490;2022-10-31T14:54:07;18.30;99.90
14521;DHT22;7347;50.844;4.490;2022-10-31T14:56:47;18.20;99.90
14521;DHT22;7347;50.844;4.490;2022-10-31T14:59:18;18.20;99.90
14521;DHT22;7347;50.844;4.490;2022-10-31T15:01:54;18.10;99.90
14521;DHT22;7347;50.844;4.490;2022-10-31T15:04:24;18.20;99.90
14521;DHT22;7347;50.844;4.490;2022-10-31T15:06:58;18.10;99.90
14521;DHT22;7347;50.844;4.490;2022-10-31T15:09:28;18.00;99.90
14521;DHT22;7347;50.844;4.490;2022-10-31T15:11:55;17.90;99.90
14521;DHT22;7347;50.844;4.490;2022-10-31T15:14:24;17.90;99.90
14521;DHT22;7347;50.844;4.490;2022-10-31T15:16:52;17.90;99.90
14521;DHT22;7347;50.844;4.490;2022-10-31T15:19:23;17.80;99.90
14521;DHT22;7347;50.844;4.490;2022-10-31T15:21:52;17.80;99.90
14521;DHT22;7347;50.844;4.490;2022-10-31T15:24:20;17.70;99.90
14521;DHT22;7347;50.844;4.490;2022-10-31T15:26:51;17.60;99.90
14521;DHT22;7347;50.844;4.490;2022-10-31T15:29:19;17.60;99.90
14521;DHT22;7347;50.844;4.490;2022-10-31T15:31:53;17.50;99.90
14521;DHT22;7347;50.844;4.490;2022-10-31T15:34:24;17.40;99.90
14521;DHT22;7347;50.844;4.490;2022-10-31T15:36:52;17.30;99.90
14521;DHT22;7347;50.844;4.490;2022-10-31T15:39:19;17.30;99.90
14521;DHT22;7347;50.844;4.490;2022-10-31T15:41:49;17.30;99.90
14521;DHT22;7347;50.844;4.490;2022-10-31T15:44:20;17.20;99.90
14521;DHT22;7347;50.844;4.490;2022-10-31T15:46:55;17.10;99.90
14521;DHT22;7347;50.844;4.490;2022-10-31T15:49:29;17.10;99.90
14521;DHT22;7347;50.844;4.490;2022-10-31T15:52:03;17.10;99.90
14521;DHT22;7347;50.844;4.490;2022-10-31T15:54:31;17.10;99.90
14521;DHT22;7347;50.844;4.490;2022-10-31T15:56:57;17.00;99.90
14521;DHT22;7347;50.844;4.490;2022-10-31T15:59:26;17.00;99.90
14521;DHT22;7347;50.844;4.490;2022-10-31T16:02:03;16.90;99.90
14521;DHT22;7347;50.844;4.490;2022-10-31T16:04:30;16.80;99.90
14521;DHT22;7347;50.844;4.490;2022-10-31T16:06:59;16.90;99.90
14521;DHT22;7347;50.844;4.490;2022-10-31T16:09:27;16.90;99.90
14521;DHT22;7347;50.844;4.490;2022-10-31T16:11:56;17.00;99.90
14521;DHT22;7347;50.844;4.490;2022-10-31T16:14:25;17.00;99.90
14521;DHT22;7347;50.844;4.490;2022-10-31T16:16:55;17.00;99.90
14521;DHT22;7347;50.844;4.490;2022-10-31T16:19:27;17.00;99.90
14521;DHT22;7347;50.844;4.490;2022-10-31T16:22:02;17.00;99.90
14521;DHT22;7347;50.844;4.490;2022-10-31T16:24:32;16.90;99.90
14521;DHT22;7347;50.844;4.490;2022-10-31T16:27:04;16.80;99.90
14521;DHT22;7347;50.844;4.490;2022-10-31T16:29:34;16.80;99.90
14521;DHT22;7347;50.844;4.490;2022-10-31T16:32:02;16.70;99.90
14521;DHT22;7347;50.844;4.490;2022-10-31T16:34:32;16.60;99.90
14521;DHT22;7347;50.844;4.490;2022-10-31T16:36:58;16.50;99.90
14521;DHT22;7347;50.844;4.490;2022-10-31T16:39:28;16.40;99.90
14521;DHT22;7347;50.844;4.490;2022-10-31T16:41:55;16.40;99.90
14521;DHT22;7347;50.844;4.490;2022-10-31T16:44:23;16.30;99.90
14521;DHT22;7347;50.844;4.490;2022-10-31T16:47:08;16.30;99.90
14521;DHT22;7347;50.844;4.490;2022-10-31T16:49:36;16.10;99.90
14521;DHT22;7347;50.844;4.490;2022-10-31T16:52:03;16.10;99.90
14521;DHT22;7347;50.844;4.490;2022-10-31T16:54:30;16.10;99.90
14521;DHT22;7347;50.844;4.490;2022-10-31T16:56:58;16.00;99.90
14521;DHT22;7347;50.844;4.490;2022-10-31T16:59:26;15.90;99.90
14521;DHT22;7347;50.844;4.490;2022-10-31T17:01:54;15.80;99.90
14521;DHT22;7347;50.844;4.490;2022-10-31T17:04:21;15.80;99.90
14521;DHT22;7347;50.844;4.490;2022-10-31T17:06:50;15.80;99.90
14521;DHT22;7347;50.844;4.490;2022-10-31T17:09:16;15.80;99.90
14521;DHT22;7347;50.844;4.490;2022-10-31T17:11:45;15.70;99.90
14521;DHT22;7347;50.844;4.490;2022-10-31T17:14:12;15.70;99.90
14521;DHT22;7347;50.844;4.490;2022-10-31T17:16:39;15.60;99.90
14521;DHT22;7347;50.844;4.490;2022-10-31T17:19:09;15.60;99.90
14521;DHT22;7347;50.844;4.490;2022-10-31T17:21:36;15.60;99.90
14521;DHT22;7347;50.844;4.490;2022-10-31T17:24:05;15.50;99.90
14521;DHT22;7347;50.844;4.490;2022-10-31T17:26:32;15.50;99.90
14521;DHT22;7347;50.844;4.490;2022-10-31T17:28:59;15.50;99.90
14521;DHT22;7347;50.844;4.490;2022-10-31T17:31:30;15.40;99.90
14521;DHT22;7347;50.844;4.490;2022-10-31T17:33:58;15.50;99.90
14521;DHT22;7347;50.844;4.490;2022-10-31T17:36:25;15.40;99.90
14521;DHT22;7347;50.844;4.490;2022-10-31T17:38:52;15.30;99.90
14521;DHT22;7347;50.844;4.490;2022-10-31T17:41:20;15.30;99.90
14521;DHT22;7347;50.844;4.490;2022-10-31T17:43:47;15.40;99.90
14521;DHT22;7347;50.844;4.490;2022-10-31T17:46:14;15.40;99.90
14521;DHT22;7347;50.844;4.490;2022-10-31T17:48:40;15.40;99.90
14521;DHT22;7347;50.844;4.490;2022-10-31T17:51:07;15.40;99.90
14521;DHT22;7347;50.844;4.490;2022-10-31T17:53:34;15.40;99.90
14521;DHT22;7347;50.844;4.490;2022-10-31T17:56:02;15.40;99.90
14521;DHT22;7347;50.844;4.490;2022-10-31T17:58:30;15.40;99.90
14521;DHT22;7347;50.844;4.490;2022-10-31T18:00:58;15.40;99.90
14521;DHT22;7347;50.844;4.490;2022-10-31T18:03:25;15.50;99.90
14521;DHT22;7347;50.844;4.490;2022-10-31T18:05:53;15.50;99.90
14521;DHT22;7347;50.844;4.490;2022-10-31T18:08:24;15.60;99.90
14521;DHT22;7347;50.844;4.490;2022-10-31T18:10:51;15.60;99.90
14521;DHT22;7347;50.844;4.490;2022-10-31T18:13:17;15.70;99.90
14521;DHT22;7347;50.844;4.490;2022-10-31T18:15:46;15.70;99.90
14521;DHT22;7347;50.844;4.490;2022-10-31T18:18:12;15.80;99.90
14521;DHT22;7347;50.844;4.490;2022-10-31T18:20:39;15.80;99.90
14521;DHT22;7347;50.844;4.490;2022-10-31T18:23:06;15.80;99.90
14521;DHT22;7347;50.844;4.490;2022-10-31T18:25:33;15.90;99.90
14521;DHT22;7347;50.844;4.490;2022-10-31T18:27:59;15.90;99.90
14521;DHT22;7347;50.844;4.490;2022-10-31T18:30:26;15.90;99.90
14521;DHT22;7347;50.844;4.490;2022-10-31T18:32:55;16.00;99.90
14521;DHT22;7347;50.844;4.490;2022-10-31T18:35:21;16.00;99.90
14521;DHT22;7347;50.844;4.490;2022-10-31T18:37:48;16.10;99.90
14521;DHT22;7347;50.844;4.490;2022-10-31T18:40:15;16.10;99.90
14521;DHT22;7347;50.844;4.490;2022-10-31T18:42:42;16.10;99.90
14521;DHT22;7347;50.844;4.490;2022-10-31T18:45:10;16.10;99.90
14521;DHT22;7347;50.844;4.490;2022-10-31T18:47:36;16.10;99.90
14521;DHT22;7347;50.844;4.490;2022-10-31T18:50:05;16.10;99.90
14521;DHT22;7347;50.844;4.490;2022-10-31T18:52:32;16.10;99.90
14521;DHT22;7347;50.844;4.490;2022-10-31T18:54:59;16.20;99.90
14521;DHT22;7347;50.844;4.490;2022-10-31T18:57:26;16.10;99.90
14521;DHT22;7347;50.844;4.490;2022-10-31T18:59:53;16.10;99.90
14521;DHT22;7347;50.844;4.490;2022-10-31T19:02:20;16.10;99.90
14521;DHT22;7347;50.844;4.490;2022-10-31T19:04:46;16.10;99.90
14521;DHT22;7347;50.844;4.490;2022-10-31T19:07:16;16.10;99.90
14521;DHT22;7347;50.844;4.490;2022-10-31T19:09:43;16.10;99.90
14521;DHT22;7347;50.844;4.490;2022-10-31T19:12:09;16.10;99.90
14521;DHT22;7347;50.844;4.490;2022-10-31T19:14:36;16.10;99.90
14521;DHT22;7347;50.844;4.490;2022-10-31T19:17:03;16.10;99.90
14521;DHT22;7347;50.844;4.490;2022-10-31T19:19:30;16.10;99.90
14521;DHT22;7347;50.844;4.490;2022-10-31T19:21:57;16.10;99.90
14521;DHT22;7347;50.844;4.490;2022-10-31T19:24:25;16.00;99.90
14521;DHT22;7347;50.844;4.490;2022-10-31T19:26:52;16.00;99.90
14521;DHT22;7347;50.844;4.490;2022-10-31T19:29:19;16.00;99.90
14521;DHT22;7347;50.844;4.490;2022-10-31T19:31:45;16.00;99.90
14521;DHT22;7347;50.844;4.490;2022-10-31T19:34:13;16.00;99.90
14521;DHT22;7347;50.844;4.490;2022-10-31T19:36:39;15.90;99.90
14521;DHT22;7347;50.844;4.490;2022-10-31T19:39:09;15.90;99.90
14521;DHT22;7347;50.844;4.490;2022-10-31T19:41:37;15.90;99.90
14521;DHT22;7347;50.844;4.490;2022-10-31T19:44:04;15.90;99.90
14521;DHT22;7347;50.844;4.490;2022-10-31T19:46:31;15.90;99.90
14521;DHT22;7347;50.844;4.490;2022-10-31T19:48:58;15.80;99.90
14521;DHT22;7347;50.844;4.490;2022-10-31T19:51:25;15.90;99.90
14521;DHT22;7347;50.844;4.490;2022-10-31T19:53:53;16.00;99.90
14521;DHT22;7347;50.844;4.490;2022-10-31T19:56:22;16.00;99.90
14521;DHT22;7347;50.844;4.490;2022-10-31T19:58:51;16.00;99.90
14521;DHT22;7347;50.844;4.490;2022-10-31T20:01:18;16.00;99.90
14521;DHT22;7347;50.844;4.490;2022-10-31T20:03:46;16.00;99.90
14521;DHT22;7347;50.844;4.490;2022-10-31T20:06:15;16.00;99.90
14521;DHT22;7347;50.844;4.490;2022-10-31T20:08:42;16.10;99.90
14521;DHT22;7347;50.844;4.490;2022-10-31T20:11:09;16.20;99.90
14521;DHT22;7347;50.844;4.490;2022-10-31T20:13:35;16.20;99.90
14521;DHT22;7347;50.844;4.490;2022-10-31T20:16:07;16.30;99.90
14521;DHT22;7347;50.844;4.490;2022-10-31T20:18:34;16.30;99.90
14521;DHT22;7347;50.844;4.490;2022-10-31T20:21:01;16.40;99.90
14521;DHT22;7347;50.844;4.490;2022-10-31T20:23:28;16.50;99.90
14521;DHT22;7347;50.844;4.490;2022-10-31T20:25:55;16.50;99.90
14521;DHT22;7347;50.844;4.490;2022-10-31T20:28:22;16.60;99.90
14521;DHT22;7347;50.844;4.490;2022-10-31T20:30:49;16.70;99.90
14521;DHT22;7347;50.844;4.490;2022-10-31T20:33:17;16.70;99.90
14521;DHT22;7347;50.844;4.490;2022-10-31T20:35:44;16.80;99.90
14521;DHT22;7347;50.844;4.490;2022-10-31T20:38:11;16.80;99.90
14521;DHT22;7347;50.844;4.490;2022-10-31T20:40:38;16.80;99.90
14521;DHT22;7347;50.844;4.490;2022-10-31T20:43:05;16.80;99.90
14521;DHT22;7347;50.844;4.490;2022-10-31T20:45:32;16.80;99.90
14521;DHT22;7347;50.844;4.490;2022-10-31T20:47:59;16.80;99.90
14521;DHT22;7347;50.844;4.490;2022-10-31T20:50:27;16.80;99.90
14521;DHT22;7347;50.844;4.490;2022-10-31T20:52:54;16.80;99.90
14521;DHT22;7347;50.844;4.490;2022-10-31T20:55:21;16.80;99.90
14521;DHT22;7347;50.844;4.490;2022-10-31T20:57:48;16.80;99.90
14521;DHT22;7347;50.844;4.490;2022-10-31T21:00:15;16.80;99.90
14521;DHT22;7347;50.844;4.490;2022-10-31T21:02:42;16.70;99.90
14521;DHT22;7347;50.844;4.490;2022-10-31T21:05:10;16.80;99.90
14521;DHT22;7347;50.844;4.490;2022-10-31T21:07:39;16.80;99.90
14521;DHT22;7347;50.844;4.490;2022-10-31T21:10:07;16.80;99.90
14521;DHT22;7347;50.844;4.490;2022-10-31T21:12:40;16.90;99.90
14521;DHT22;7347;50.844;4.490;2022-10-31T21:15:07;16.80;99.90
14521;DHT22;7347;50.844;4.490;2022-10-31T21:17:35;16.90;99.90
14521;DHT22;7347;50.844;4.490;2022-10-31T21:20:02;16.90;99.90
14521;DHT22;7347;50.844;4.490;2022-10-31T21:22:30;17.00;99.90
14521;DHT22;7347;50.844;4.490;2022-10-31T21:24:58;16.90;99.90
14521;DHT22;7347;50.844;4.490;2022-10-31T21:27:25;16.90;99.90
14521;DHT22;7347;50.844;4.490;2022-10-31T21:29:52;17.00;99.90
14521;DHT22;7347;50.844;4.490;2022-10-31T21:32:19;17.00;99.90
14521;DHT22;7347;50.844;4.490;2022-10-31T21:34:46;17.00;99.90
14521;DHT22;7347;50.844;4.490;2022-10-31T21:37:14;17.00;99.90
14521;DHT22;7347;50.844;4.490;2022-10-31T21:39:41;17.00;99.90
14521;DHT22;7347;50.844;4.490;2022-10-31T21:42:09;17.00;99.90
14521;DHT22;7347;50.844;4.490;2022-10-31T21:44:36;17.10;99.90
14521;DHT22;7347;50.844;4.490;2022-10-31T21:47:03;17.10;99.90
14521;DHT22;7347;50.844;4.490;2022-10-31T21:49:30;17.00;99.90
14521;DHT22;7347;50.844;4.490;2022-10-31T21:51:57;17.00;99.90
14521;DHT22;7347;50.844;4.490;2022-10-31T21:54:23;17.10;99.90
14521;DHT22;7347;50.844;4.490;2022-10-31T21:56:52;17.20;99.90
14521;DHT22;7347;50.844;4.490;2022-10-31T21:59:20;17.20;99.90
14521;DHT22;7347;50.844;4.490;2022-10-31T22:01:47;17.20;99.90
14521;DHT22;7347;50.844;4.490;2022-10-31T22:04:14;17.20;99.90
14521;DHT22;7347;50.844;4.490;2022-10-31T22:06:41;17.20;99.90
14521;DHT22;7347;50.844;4.490;2022-10-31T22:09:10;17.20;99.90
14521;DHT22;7347;50.844;4.490;2022-10-31T22:11:38;17.20;99.90
